sensor_id;sensor_type;location;lat;lon;timestamp;P1;durP1;ratioP1;P2;durP2;ratioP2
9827;SDS011;4953;48.952;9.442;2022-09-03T04:01:54;2.27;;;2.07;;
9827;SDS011;4953;48.952;9.442;2022-09-03T04:04:21;3.80;;;2.50;;
9827;SDS011;4953;48.952;9.442;2022-09-03T04:06:48;3.20;;;2.77;;
9827;SDS011;4953;48.952;9.442;2022-09-03T04:09:14;4.40;;;2.90;;
9827;SDS011;4953;48.952;9.442;2022-09-03T04:11:41;3.90;;;2.80;;
9827;SDS011;4953;48.952;9.442;2022-09-03T04:14:08;5.00;;;3.33;;
9827;SDS011;4953;48.952;9.442;2022-09-03T04:16:35;6.37;;;3.70;;
9827;SDS011;4953;48.952;9.442;2022-09-03T04:19:03;4.80;;;3.20;;
9827;SDS011;4953;48.952;9.442;2022-09-03T04:21:30;4.97;;;3.23;;
9827;SDS011;4953;48.952;9.442;2022-09-03T04:23:57;5.73;;;3.53;;
9827;SDS011;4953;48.952;9.442;2022-09-03T04:26:25;3.60;;;2.67;;
9827;SDS011;4953;48.952;9.442;2022-09-03T04:28:55;4.03;;;2.67;;
9827;SDS011;4953;48.952;9.442;2022-09-03T04:31:22;4.90;;;2.93;;
9827;SDS011;4953;48.952;9.442;2022-09-03T04:33:49;5.27;;;2.70;;
9827;SDS011;4953;48.952;9.442;2022-09-03T04:36:18;3.00;;;2.13;;
9827;SDS011;4953;48.952;9.442;2022-09-03T04:38:47;5.70;;;2.10;;
9827;SDS011;4953;48.952;9.442;2022-09-03T04:41:15;2.70;;;2.10;;
9827;SDS011;4953;48.952;9.442;2022-09-03T04:43:43;3.87;;;2.37;;
9827;SDS011;4953;48.952;9.442;2022-09-03T04:46:12;3.20;;;2.50;;
9827;SDS011;4953;48.952;9.442;2022-09-03T04:48:40;2.20;;;2.00;;
9827;SDS011;4953;48.952;9.442;2022-09-03T04:51:08;3.00;;;2.33;;
9827;SDS011;4953;48.952;9.442;2022-09-03T04:53:39;4.37;;;2.63;;
9827;SDS011;4953;48.952;9.442;2022-09-03T04:56:11;3.60;;;2.47;;
9827;SDS011;4953;48.952;9.442;2022-09-03T04:58:39;3.50;;;2.63;;
9827;SDS011;4953;48.952;9.442;2022-09-03T05:01:07;7.90;;;1.93;;
9827;SDS011;4953;48.952;9.442;2022-09-03T05:03:35;3.83;;;2.33;;
9827;SDS011;4953;48.952;9.442;2022-09-03T05:06:02;2.80;;;1.90;;
9827;SDS011;4953;48.952;9.442;2022-09-03T05:08:30;2.50;;;2.30;;
9827;SDS011;4953;48.952;9.442;2022-09-03T05:11:02;4.17;;;2.30;;
9827;SDS011;4953;48.952;9.442;2022-09-03T05:13:30;2.43;;;1.80;;
9827;SDS011;4953;48.952;9.442;2022-09-03T05:15:58;3.60;;;2.60;;
9827;SDS011;4953;48.952;9.442;2022-09-03T05:18:25;6.10;;;2.27;;
9827;SDS011;4953;48.952;9.442;2022-09-03T05:20:56;3.73;;;2.53;;
9827;SDS011;4953;48.952;9.442;2022-09-03T05:23:24;3.20;;;2.30;;
9827;SDS011;4953;48.952;9.442;2022-09-03T05:25:53;3.10;;;2.80;;
9827;SDS011;4953;48.952;9.442;2022-09-03T05:28:23;3.20;;;2.27;;
9827;SDS011;4953;48.952;9.442;2022-09-03T05:30:57;3.10;;;2.77;;
9827;SDS011;4953;48.952;9.442;2022-09-03T05:33:24;2.67;;;2.23;;
9827;SDS011;4953;48.952;9.442;2022-09-03T05:35:52;3.30;;;2.13;;
9827;SDS011;4953;48.952;9.442;2022-09-03T05:38:19;2.77;;;2.20;;
9827;SDS011;4953;48.952;9.442;2022-09-03T05:40:45;2.50;;;2.30;;
9827;SDS011;4953;48.952;9.442;2022-09-03T05:43:12;3.00;;;2.50;;
9827;SDS011;4953;48.952;9.442;2022-09-03T05:45:42;5.23;;;2.43;;
9827;SDS011;4953;48.952;9.442;2022-09-03T05:48:09;3.03;;;2.00;;
9827;SDS011;4953;48.952;9.442;2022-09-03T05:50:36;3.27;;;2.40;;
9827;SDS011;4953;48.952;9.442;2022-09-03T05:53:03;3.03;;;2.30;;
9827;SDS011;4953;48.952;9.442;2022-09-03T05:55:29;5.33;;;2.23;;
9827;SDS011;4953;48.952;9.442;2022-09-03T05:57:59;4.27;;;2.17;;
9827;SDS011;4953;48.952;9.442;2022-09-03T06:00:26;2.90;;;2.10;;
9827;SDS011;4953;48.952;9.442;2022-09-03T06:02:54;2.50;;;2.00;;
9827;SDS011;4953;48.952;9.442;2022-09-03T06:05:22;2.20;;;1.67;;
9827;SDS011;4953;48.952;9.442;2022-09-03T06:07:49;3.30;;;2.30;;
9827;SDS011;4953;48.952;9.442;2022-09-03T06:10:17;2.83;;;2.17;;
9827;SDS011;4953;48.952;9.442;2022-09-03T06:12:44;4.03;;;2.30;;
9827;SDS011;4953;48.952;9.442;2022-09-03T06:15:14;4.17;;;2.80;;
9827;SDS011;4953;48.952;9.442;2022-09-03T06:17:41;5.73;;;2.50;;
9827;SDS011;4953;48.952;9.442;2022-09-03T06:20:09;4.67;;;2.40;;
9827;SDS011;4953;48.952;9.442;2022-09-03T06:22:36;2.87;;;2.30;;
9827;SDS011;4953;48.952;9.442;2022-09-03T06:25:03;4.77;;;2.80;;
9827;SDS011;4953;48.952;9.442;2022-09-03T06:27:31;2.93;;;2.37;;
9827;SDS011;4953;48.952;9.442;2022-09-03T06:29:58;3.70;;;2.07;;
9827;SDS011;4953;48.952;9.442;2022-09-03T06:32:25;4.30;;;2.60;;
9827;SDS011;4953;48.952;9.442;2022-09-03T06:34:53;3.43;;;2.30;;
9827;SDS011;4953;48.952;9.442;2022-09-03T06:37:21;2.50;;;2.17;;
9827;SDS011;4953;48.952;9.442;2022-09-03T06:39:48;3.87;;;2.30;;
9827;SDS011;4953;48.952;9.442;2022-09-03T06:42:15;4.00;;;2.70;;
9827;SDS011;4953;48.952;9.442;2022-09-03T06:44:42;6.20;;;2.50;;
9827;SDS011;4953;48.952;9.442;2022-09-03T06:47:10;2.40;;;2.07;;
9827;SDS011;4953;48.952;9.442;2022-09-03T06:49:36;2.57;;;2.37;;
9827;SDS011;4953;48.952;9.442;2022-09-03T06:52:03;3.57;;;2.40;;
9827;SDS011;4953;48.952;9.442;2022-09-03T06:54:31;3.10;;;2.60;;
9827;SDS011;4953;48.952;9.442;2022-09-03T06:56:58;2.60;;;2.23;;
9827;SDS011;4953;48.952;9.442;2022-09-03T06:59:25;2.80;;;2.27;;
9827;SDS011;4953;48.952;9.442;2022-09-03T07:01:52;6.80;;;2.53;;
9827;SDS011;4953;48.952;9.442;2022-09-03T07:04:19;5.77;;;2.30;;
9827;SDS011;4953;48.952;9.442;2022-09-03T07:06:48;3.20;;;2.40;;
9827;SDS011;4953;48.952;9.442;2022-09-03T07:09:15;4.93;;;2.70;;
9827;SDS011;4953;48.952;9.442;2022-09-03T07:11:44;25.03;;;3.93;;
9827;SDS011;4953;48.952;9.442;2022-09-03T07:14:12;3.30;;;2.20;;
9827;SDS011;4953;48.952;9.442;2022-09-03T07:16:39;3.43;;;2.60;;
9827;SDS011;4953;48.952;9.442;2022-09-03T07:19:07;2.90;;;2.43;;
9827;SDS011;4953;48.952;9.442;2022-09-03T07:21:35;2.50;;;2.20;;
9827;SDS011;4953;48.952;9.442;2022-09-03T07:24:03;4.23;;;2.40;;
9827;SDS011;4953;48.952;9.442;2022-09-03T07:26:31;3.87;;;2.50;;
9827;SDS011;4953;48.952;9.442;2022-09-03T07:29:01;3.70;;;2.67;;
9827;SDS011;4953;48.952;9.442;2022-09-03T07:31:29;4.67;;;2.73;;
9827;SDS011;4953;48.952;9.442;2022-09-03T07:33:58;6.10;;;2.63;;
9827;SDS011;4953;48.952;9.442;2022-09-03T07:36:28;15.47;;;4.90;;
9827;SDS011;4953;48.952;9.442;2022-09-03T07:38:56;6.50;;;3.00;;
9827;SDS011;4953;48.952;9.442;2022-09-03T07:41:24;2.90;;;2.40;;
9827;SDS011;4953;48.952;9.442;2022-09-03T07:43:52;4.43;;;2.73;;
9827;SDS011;4953;48.952;9.442;2022-09-03T07:46:21;10.00;;;3.20;;
9827;SDS011;4953;48.952;9.442;2022-09-03T07:48:49;2.93;;;2.67;;
9827;SDS011;4953;48.952;9.442;2022-09-03T07:51:19;5.13;;;2.80;;
9827;SDS011;4953;48.952;9.442;2022-09-03T07:53:51;4.27;;;2.90;;
9827;SDS011;4953;48.952;9.442;2022-09-03T07:56:20;2.87;;;2.50;;
9827;SDS011;4953;48.952;9.442;2022-09-03T07:58:47;5.40;;;2.87;;
9827;SDS011;4953;48.952;9.442;2022-09-03T08:01:14;2.97;;;2.30;;
9827;SDS011;4953;48.952;9.442;2022-09-03T08:03:44;4.60;;;2.97;;
9827;SDS011;4953;48.952;9.442;2022-09-03T08:06:13;2.60;;;2.40;;
9827;SDS011;4953;48.952;9.442;2022-09-03T08:08:41;3.60;;;2.83;;
9827;SDS011;4953;48.952;9.442;2022-09-03T08:11:09;8.90;;;2.80;;
9827;SDS011;4953;48.952;9.442;2022-09-03T08:13:37;3.37;;;2.63;;
9827;SDS011;4953;48.952;9.442;2022-09-03T08:16:05;3.17;;;2.87;;
9827;SDS011;4953;48.952;9.442;2022-09-03T08:18:33;3.90;;;2.50;;
9827;SDS011;4953;48.952;9.442;2022-09-03T08:21:03;4.20;;;2.90;;
9827;SDS011;4953;48.952;9.442;2022-09-03T08:23:32;3.47;;;2.53;;
9827;SDS011;4953;48.952;9.442;2022-09-03T08:26:02;5.30;;;3.00;;
9827;SDS011;4953;48.952;9.442;2022-09-03T08:28:29;4.43;;;3.00;;
9827;SDS011;4953;48.952;9.442;2022-09-03T08:30:56;2.60;;;2.40;;
9827;SDS011;4953;48.952;9.442;2022-09-03T08:33:26;5.63;;;2.80;;
9827;SDS011;4953;48.952;9.442;2022-09-03T08:36:04;5.20;;;3.53;;
9827;SDS011;4953;48.952;9.442;2022-09-03T08:38:34;11.23;;;4.10;;
9827;SDS011;4953;48.952;9.442;2022-09-03T08:41:06;15.97;;;3.90;;
9827;SDS011;4953;48.952;9.442;2022-09-03T08:43:38;3.87;;;2.83;;
9827;SDS011;4953;48.952;9.442;2022-09-03T08:46:25;3.40;;;3.00;;
9827;SDS011;4953;48.952;9.442;2022-09-03T08:49:03;3.53;;;3.00;;
9827;SDS011;4953;48.952;9.442;2022-09-03T08:51:33;3.60;;;3.13;;
9827;SDS011;4953;48.952;9.442;2022-09-03T08:54:04;3.67;;;2.77;;
9827;SDS011;4953;48.952;9.442;2022-09-03T08:56:34;4.43;;;3.20;;
9827;SDS011;4953;48.952;9.442;2022-09-03T08:59:04;3.33;;;2.80;;
9827;SDS011;4953;48.952;9.442;2022-09-03T09:01:33;3.30;;;2.63;;
9827;SDS011;4953;48.952;9.442;2022-09-03T09:04:09;4.00;;;3.00;;
9827;SDS011;4953;48.952;9.442;2022-09-03T09:06:49;3.70;;;2.97;;
9827;SDS011;4953;48.952;9.442;2022-09-03T09:09:22;5.73;;;2.93;;
9827;SDS011;4953;48.952;9.442;2022-09-03T09:12:01;4.00;;;2.97;;
9827;SDS011;4953;48.952;9.442;2022-09-03T09:14:39;3.53;;;3.17;;
9827;SDS011;4953;48.952;9.442;2022-09-03T09:17:19;3.87;;;3.47;;
9827;SDS011;4953;48.952;9.442;2022-09-03T09:19:58;5.10;;;3.57;;
9827;SDS011;4953;48.952;9.442;2022-09-03T09:22:35;4.23;;;3.03;;
9827;SDS011;4953;48.952;9.442;2022-09-03T09:25:06;3.33;;;3.03;;
9827;SDS011;4953;48.952;9.442;2022-09-03T09:27:38;3.90;;;3.07;;
9827;SDS011;4953;48.952;9.442;2022-09-03T09:30:16;8.87;;;3.00;;
9827;SDS011;4953;48.952;9.442;2022-09-03T09:32:43;6.70;;;3.20;;
9827;SDS011;4953;48.952;9.442;2022-09-03T09:35:11;3.93;;;3.10;;
9827;SDS011;4953;48.952;9.442;2022-09-03T09:37:47;2.90;;;2.60;;
9827;SDS011;4953;48.952;9.442;2022-09-03T09:40:25;3.70;;;3.40;;
9827;SDS011;4953;48.952;9.442;2022-09-03T09:43:04;3.10;;;2.80;;
9827;SDS011;4953;48.952;9.442;2022-09-03T09:45:32;3.40;;;3.10;;
9827;SDS011;4953;48.952;9.442;2022-09-03T09:48:00;4.50;;;3.70;;
9827;SDS011;4953;48.952;9.442;2022-09-03T09:50:28;6.60;;;3.40;;
9827;SDS011;4953;48.952;9.442;2022-09-03T09:53:03;7.50;;;5.43;;
9827;SDS011;4953;48.952;9.442;2022-09-03T09:55:47;4.83;;;3.50;;
9827;SDS011;4953;48.952;9.442;2022-09-03T09:58:14;5.23;;;3.47;;
9827;SDS011;4953;48.952;9.442;2022-09-03T10:00:53;4.60;;;2.80;;
9827;SDS011;4953;48.952;9.442;2022-09-03T10:03:24;3.93;;;2.90;;
9827;SDS011;4953;48.952;9.442;2022-09-03T10:05:57;3.43;;;3.13;;
9827;SDS011;4953;48.952;9.442;2022-09-03T10:08:51;6.20;;;3.10;;
9827;SDS011;4953;48.952;9.442;2022-09-03T10:11:19;3.80;;;3.20;;
9827;SDS011;4953;48.952;9.442;2022-09-03T10:13:49;3.43;;;3.13;;
9827;SDS011;4953;48.952;9.442;2022-09-03T10:16:21;3.60;;;3.10;;
9827;SDS011;4953;48.952;9.442;2022-09-03T10:18:52;4.57;;;3.30;;
9827;SDS011;4953;48.952;9.442;2022-09-03T10:21:26;4.83;;;3.90;;
9827;SDS011;4953;48.952;9.442;2022-09-03T10:24:07;5.63;;;3.17;;
9827;SDS011;4953;48.952;9.442;2022-09-03T10:26:51;5.70;;;3.10;;
9827;SDS011;4953;48.952;9.442;2022-09-03T10:29:19;5.80;;;2.73;;
9827;SDS011;4953;48.952;9.442;2022-09-03T10:31:52;8.00;;;3.30;;
9827;SDS011;4953;48.952;9.442;2022-09-03T10:34:28;4.77;;;2.80;;
9827;SDS011;4953;48.952;9.442;2022-09-03T10:37:01;6.73;;;3.37;;
9827;SDS011;4953;48.952;9.442;2022-09-03T10:39:41;4.33;;;3.13;;
9827;SDS011;4953;48.952;9.442;2022-09-03T10:42:31;4.67;;;3.17;;
9827;SDS011;4953;48.952;9.442;2022-09-03T10:45:13;3.30;;;2.77;;
9827;SDS011;4953;48.952;9.442;2022-09-03T10:48:01;7.23;;;3.33;;
9827;SDS011;4953;48.952;9.442;2022-09-03T10:50:51;4.60;;;3.57;;
9827;SDS011;4953;48.952;9.442;2022-09-03T10:53:24;6.80;;;2.70;;
9827;SDS011;4953;48.952;9.442;2022-09-03T10:56:03;3.70;;;3.00;;
9827;SDS011;4953;48.952;9.442;2022-09-03T10:58:36;3.87;;;3.13;;
9827;SDS011;4953;48.952;9.442;2022-09-03T11:01:15;3.10;;;2.80;;
9827;SDS011;4953;48.952;9.442;2022-09-03T11:03:52;3.70;;;3.00;;
9827;SDS011;4953;48.952;9.442;2022-09-03T11:06:28;4.27;;;2.80;;
9827;SDS011;4953;48.952;9.442;2022-09-03T11:09:12;6.37;;;2.97;;
9827;SDS011;4953;48.952;9.442;2022-09-03T11:11:44;6.53;;;3.33;;
9827;SDS011;4953;48.952;9.442;2022-09-03T11:14:17;4.07;;;3.47;;
9827;SDS011;4953;48.952;9.442;2022-09-03T11:16:54;2.93;;;2.40;;
9827;SDS011;4953;48.952;9.442;2022-09-03T11:19:29;5.87;;;2.90;;
9827;SDS011;4953;48.952;9.442;2022-09-03T11:21:59;6.60;;;2.87;;
9827;SDS011;4953;48.952;9.442;2022-09-03T11:24:28;4.00;;;2.70;;
9827;SDS011;4953;48.952;9.442;2022-09-03T11:27:01;3.07;;;2.80;;
9827;SDS011;4953;48.952;9.442;2022-09-03T11:29:37;3.20;;;2.90;;
9827;SDS011;4953;48.952;9.442;2022-09-03T11:32:14;4.03;;;2.87;;
9827;SDS011;4953;48.952;9.442;2022-09-03T11:34:44;4.50;;;2.57;;
9827;SDS011;4953;48.952;9.442;2022-09-03T11:37:16;4.60;;;2.93;;
9827;SDS011;4953;48.952;9.442;2022-09-03T11:39:52;3.17;;;2.30;;
9827;SDS011;4953;48.952;9.442;2022-09-03T11:42:30;3.00;;;2.53;;
9827;SDS011;4953;48.952;9.442;2022-09-03T11:45:11;3.67;;;2.90;;
9827;SDS011;4953;48.952;9.442;2022-09-03T11:47:47;2.80;;;2.60;;
9827;SDS011;4953;48.952;9.442;2022-09-03T11:50:17;3.57;;;2.50;;
9827;SDS011;4953;48.952;9.442;2022-09-03T11:52:47;6.80;;;3.00;;
9827;SDS011;4953;48.952;9.442;2022-09-03T11:55:25;3.60;;;2.70;;
9827;SDS011;4953;48.952;9.442;2022-09-03T11:57:57;2.90;;;2.60;;
9827;SDS011;4953;48.952;9.442;2022-09-03T12:00:24;6.00;;;2.77;;
9827;SDS011;4953;48.952;9.442;2022-09-03T12:02:51;2.53;;;2.33;;
9827;SDS011;4953;48.952;9.442;2022-09-03T12:05:24;3.30;;;2.40;;
9827;SDS011;4953;48.952;9.442;2022-09-03T12:08:04;3.73;;;2.60;;
9827;SDS011;4953;48.952;9.442;2022-09-03T12:10:42;4.13;;;2.30;;
9827;SDS011;4953;48.952;9.442;2022-09-03T12:13:27;5.37;;;2.70;;
9827;SDS011;4953;48.952;9.442;2022-09-03T12:19:10;3.60;;;3.00;;
9827;SDS011;4953;48.952;9.442;2022-09-03T12:21:46;3.10;;;2.80;;
9827;SDS011;4953;48.952;9.442;2022-09-03T12:24:14;8.27;;;2.77;;
9827;SDS011;4953;48.952;9.442;2022-09-03T12:26:42;3.33;;;2.83;;
9827;SDS011;4953;48.952;9.442;2022-09-03T12:29:21;3.30;;;3.00;;
9827;SDS011;4953;48.952;9.442;2022-09-03T12:31:51;3.80;;;3.03;;
9827;SDS011;4953;48.952;9.442;2022-09-03T12:34:20;3.33;;;2.90;;
9827;SDS011;4953;48.952;9.442;2022-09-03T12:36:49;6.93;;;3.07;;
9827;SDS011;4953;48.952;9.442;2022-09-03T12:39:18;3.90;;;3.07;;
9827;SDS011;4953;48.952;9.442;2022-09-03T12:41:55;6.00;;;3.53;;
9827;SDS011;4953;48.952;9.442;2022-09-03T12:44:29;5.43;;;2.73;;
9827;SDS011;4953;48.952;9.442;2022-09-03T12:47:01;3.60;;;3.07;;
9827;SDS011;4953;48.952;9.442;2022-09-03T12:49:35;4.83;;;3.30;;
9827;SDS011;4953;48.952;9.442;2022-09-03T12:52:05;4.47;;;3.60;;
9827;SDS011;4953;48.952;9.442;2022-09-03T12:54:38;4.20;;;3.37;;
9827;SDS011;4953;48.952;9.442;2022-09-03T12:57:18;4.90;;;4.17;;
9827;SDS011;4953;48.952;9.442;2022-09-03T12:59:49;5.70;;;3.67;;
9827;SDS011;4953;48.952;9.442;2022-09-03T13:02:19;10.50;;;3.60;;
9827;SDS011;4953;48.952;9.442;2022-09-03T13:04:51;4.30;;;3.17;;
9827;SDS011;4953;48.952;9.442;2022-09-03T13:07:22;3.97;;;3.47;;
9827;SDS011;4953;48.952;9.442;2022-09-03T13:09:55;4.10;;;2.90;;
9827;SDS011;4953;48.952;9.442;2022-09-03T13:12:29;5.13;;;4.20;;
9827;SDS011;4953;48.952;9.442;2022-09-03T13:15:03;5.20;;;3.67;;
9827;SDS011;4953;48.952;9.442;2022-09-03T13:20:32;3.63;;;2.47;;
9827;SDS011;4953;48.952;9.442;2022-09-03T13:23:13;3.37;;;2.30;;
9827;SDS011;4953;48.952;9.442;2022-09-03T13:25:54;5.80;;;2.47;;
9827;SDS011;4953;48.952;9.442;2022-09-03T13:28:31;2.10;;;1.90;;
9827;SDS011;4953;48.952;9.442;2022-09-03T13:31:21;2.37;;;1.60;;
9827;SDS011;4953;48.952;9.442;2022-09-03T13:33:54;2.33;;;1.70;;
9827;SDS011;4953;48.952;9.442;2022-09-03T13:36:27;1.50;;;1.20;;
9827;SDS011;4953;48.952;9.442;2022-09-03T13:38:57;3.00;;;1.70;;
9827;SDS011;4953;48.952;9.442;2022-09-03T13:41:32;3.10;;;1.37;;
9827;SDS011;4953;48.952;9.442;2022-09-03T13:44:05;4.60;;;1.67;;
9827;SDS011;4953;48.952;9.442;2022-09-03T13:46:42;3.20;;;1.70;;
9827;SDS011;4953;48.952;9.442;2022-09-03T13:49:16;3.83;;;1.77;;
9827;SDS011;4953;48.952;9.442;2022-09-03T13:52:11;2.50;;;1.40;;
9827;SDS011;4953;48.952;9.442;2022-09-03T13:54:48;2.00;;;1.77;;
9827;SDS011;4953;48.952;9.442;2022-09-03T13:57:20;3.70;;;1.97;;
9827;SDS011;4953;48.952;9.442;2022-09-03T13:59:55;1.83;;;1.70;;
9827;SDS011;4953;48.952;9.442;2022-09-03T14:02:32;3.87;;;1.90;;
9827;SDS011;4953;48.952;9.442;2022-09-03T14:05:12;2.50;;;2.00;;
9827;SDS011;4953;48.952;9.442;2022-09-03T14:07:50;8.97;;;2.10;;
9827;SDS011;4953;48.952;9.442;2022-09-03T14:10:29;3.83;;;2.30;;
9827;SDS011;4953;48.952;9.442;2022-09-03T14:13:09;2.33;;;2.13;;
9827;SDS011;4953;48.952;9.442;2022-09-03T14:15:45;4.50;;;2.30;;
9827;SDS011;4953;48.952;9.442;2022-09-03T14:18:22;2.93;;;2.47;;
9827;SDS011;4953;48.952;9.442;2022-09-03T14:21:04;2.90;;;2.60;;
9827;SDS011;4953;48.952;9.442;2022-09-03T14:23:39;2.20;;;2.00;;
9827;SDS011;4953;48.952;9.442;2022-09-03T14:26:14;2.33;;;1.80;;
9827;SDS011;4953;48.952;9.442;2022-09-03T14:28:44;1.80;;;1.70;;
9827;SDS011;4953;48.952;9.442;2022-09-03T14:31:15;1.80;;;1.60;;
9827;SDS011;4953;48.952;9.442;2022-09-03T14:33:56;1.73;;;1.50;;
9827;SDS011;4953;48.952;9.442;2022-09-03T14:36:29;2.80;;;1.60;;
9827;SDS011;4953;48.952;9.442;2022-09-03T14:39:24;1.87;;;1.50;;
9827;SDS011;4953;48.952;9.442;2022-09-03T14:42:01;3.23;;;1.70;;
9827;SDS011;4953;48.952;9.442;2022-09-03T14:47:40;2.23;;;1.70;;
9827;SDS011;4953;48.952;9.442;2022-09-03T14:50:21;2.83;;;1.80;;
9827;SDS011;4953;48.952;9.442;2022-09-03T14:53:08;2.83;;;1.50;;
9827;SDS011;4953;48.952;9.442;2022-09-03T14:55:53;1.70;;;1.40;;
9827;SDS011;4953;48.952;9.442;2022-09-03T14:58:41;2.17;;;1.77;;
9827;SDS011;4953;48.952;9.442;2022-09-03T15:01:22;2.30;;;1.60;;
9827;SDS011;4953;48.952;9.442;2022-09-03T15:06:54;2.40;;;1.40;;
9827;SDS011;4953;48.952;9.442;2022-09-03T15:09:31;1.60;;;1.37;;
9827;SDS011;4953;48.952;9.442;2022-09-03T15:12:07;2.57;;;1.50;;
9827;SDS011;4953;48.952;9.442;2022-09-03T15:14:45;4.90;;;1.50;;
9827;SDS011;4953;48.952;9.442;2022-09-03T15:17:21;4.30;;;2.00;;
9827;SDS011;4953;48.952;9.442;2022-09-03T15:20:02;1.87;;;1.70;;
9827;SDS011;4953;48.952;9.442;2022-09-03T15:22:50;2.60;;;1.50;;
9827;SDS011;4953;48.952;9.442;2022-09-03T15:25:39;3.70;;;1.73;;
9827;SDS011;4953;48.952;9.442;2022-09-03T15:28:29;4.27;;;1.73;;
9827;SDS011;4953;48.952;9.442;2022-09-03T15:31:08;2.60;;;1.63;;
9827;SDS011;4953;48.952;9.442;2022-09-03T15:33:43;2.27;;;1.77;;
9827;SDS011;4953;48.952;9.442;2022-09-03T15:36:17;2.20;;;1.87;;
9827;SDS011;4953;48.952;9.442;2022-09-03T15:38:51;1.80;;;1.40;;
9827;SDS011;4953;48.952;9.442;2022-09-03T15:41:25;2.53;;;1.70;;
9827;SDS011;4953;48.952;9.442;2022-09-03T15:44:06;4.73;;;1.93;;
9827;SDS011;4953;48.952;9.442;2022-09-03T15:46:39;1.93;;;1.53;;
9827;SDS011;4953;48.952;9.442;2022-09-03T15:49:17;3.20;;;1.50;;
9827;SDS011;4953;48.952;9.442;2022-09-03T15:51:55;2.03;;;1.67;;
9827;SDS011;4953;48.952;9.442;2022-09-03T15:54:34;1.73;;;1.50;;
9827;SDS011;4953;48.952;9.442;2022-09-03T15:57:09;8.00;;;1.90;;
9827;SDS011;4953;48.952;9.442;2022-09-03T15:59:39;2.80;;;2.00;;
9827;SDS011;4953;48.952;9.442;2022-09-03T16:02:11;2.33;;;1.70;;
9827;SDS011;4953;48.952;9.442;2022-09-03T16:04:47;2.03;;;1.60;;
9827;SDS011;4953;48.952;9.442;2022-09-03T16:07:29;3.50;;;1.60;;
9827;SDS011;4953;48.952;9.442;2022-09-03T16:10:14;2.33;;;2.13;;
9827;SDS011;4953;48.952;9.442;2022-09-03T16:12:46;2.83;;;1.90;;
9827;SDS011;4953;48.952;9.442;2022-09-03T16:15:23;3.03;;;1.93;;
9827;SDS011;4953;48.952;9.442;2022-09-03T16:17:53;3.40;;;1.70;;
9827;SDS011;4953;48.952;9.442;2022-09-03T16:20:24;5.40;;;1.80;;
9827;SDS011;4953;48.952;9.442;2022-09-03T16:23:00;1.70;;;1.50;;
9827;SDS011;4953;48.952;9.442;2022-09-03T16:25:32;2.20;;;1.73;;
9827;SDS011;4953;48.952;9.442;2022-09-03T16:28:10;2.50;;;1.77;;
9827;SDS011;4953;48.952;9.442;2022-09-03T16:30:46;2.33;;;1.60;;
9827;SDS011;4953;48.952;9.442;2022-09-03T16:33:23;1.57;;;1.40;;
9827;SDS011;4953;48.952;9.442;2022-09-03T16:36:01;4.13;;;1.80;;
9827;SDS011;4953;48.952;9.442;2022-09-03T16:38:38;2.50;;;1.90;;
9827;SDS011;4953;48.952;9.442;2022-09-03T16:41:17;1.50;;;1.40;;
9827;SDS011;4953;48.952;9.442;2022-09-03T16:43:54;2.60;;;1.93;;
9827;SDS011;4953;48.952;9.442;2022-09-03T16:46:33;4.00;;;2.10;;
9827;SDS011;4953;48.952;9.442;2022-09-03T16:49:18;2.73;;;1.70;;
9827;SDS011;4953;48.952;9.442;2022-09-03T16:51:54;2.80;;;1.63;;
9827;SDS011;4953;48.952;9.442;2022-09-03T16:54:35;2.53;;;1.93;;
9827;SDS011;4953;48.952;9.442;2022-09-03T16:57:20;2.57;;;1.80;;
9827;SDS011;4953;48.952;9.442;2022-09-03T17:00:06;2.23;;;1.70;;
9827;SDS011;4953;48.952;9.442;2022-09-03T17:02:39;2.10;;;1.80;;
9827;SDS011;4953;48.952;9.442;2022-09-03T17:05:42;2.93;;;2.30;;
9827;SDS011;4953;48.952;9.442;2022-09-03T17:08:25;4.37;;;1.50;;
9827;SDS011;4953;48.952;9.442;2022-09-03T17:11:02;2.83;;;1.80;;
9827;SDS011;4953;48.952;9.442;2022-09-03T17:13:43;2.60;;;2.03;;
9827;SDS011;4953;48.952;9.442;2022-09-03T17:16:35;2.53;;;1.80;;
9827;SDS011;4953;48.952;9.442;2022-09-03T17:19:12;2.43;;;1.80;;
9827;SDS011;4953;48.952;9.442;2022-09-03T17:21:47;2.97;;;1.77;;
9827;SDS011;4953;48.952;9.442;2022-09-03T17:24:29;4.00;;;2.27;;
9827;SDS011;4953;48.952;9.442;2022-09-03T17:27:11;2.53;;;1.93;;
9827;SDS011;4953;48.952;9.442;2022-09-03T17:30:19;2.50;;;1.90;;
9827;SDS011;4953;48.952;9.442;2022-09-03T17:36:10;2.57;;;1.97;;
9827;SDS011;4953;48.952;9.442;2022-09-03T17:41:36;2.50;;;2.23;;
9827;SDS011;4953;48.952;9.442;2022-09-03T17:44:12;2.83;;;1.90;;
9827;SDS011;4953;48.952;9.442;2022-09-03T17:46:46;4.33;;;2.27;;
9827;SDS011;4953;48.952;9.442;2022-09-03T17:49:23;3.53;;;2.23;;
9827;SDS011;4953;48.952;9.442;2022-09-03T17:51:57;2.63;;;2.17;;
9827;SDS011;4953;48.952;9.442;2022-09-03T17:54:32;7.27;;;2.00;;
9827;SDS011;4953;48.952;9.442;2022-09-03T17:57:04;6.40;;;2.37;;
9827;SDS011;4953;48.952;9.442;2022-09-03T17:59:41;2.73;;;2.03;;
9827;SDS011;4953;48.952;9.442;2022-09-03T18:02:17;2.53;;;2.27;;
9827;SDS011;4953;48.952;9.442;2022-09-03T18:04:55;2.10;;;1.90;;
9827;SDS011;4953;48.952;9.442;2022-09-03T18:07:26;2.47;;;2.27;;
9827;SDS011;4953;48.952;9.442;2022-09-03T18:10:01;2.00;;;1.80;;
9827;SDS011;4953;48.952;9.442;2022-09-03T18:12:33;3.00;;;1.93;;
9827;SDS011;4953;48.952;9.442;2022-09-03T18:15:06;3.13;;;2.10;;
9827;SDS011;4953;48.952;9.442;2022-09-03T18:17:40;3.43;;;2.30;;
9827;SDS011;4953;48.952;9.442;2022-09-03T18:20:11;3.03;;;1.90;;
9827;SDS011;4953;48.952;9.442;2022-09-03T18:22:58;6.13;;;2.17;;
9827;SDS011;4953;48.952;9.442;2022-09-03T18:25:47;3.83;;;2.00;;
9827;SDS011;4953;48.952;9.442;2022-09-03T18:28:38;3.10;;;1.80;;
9827;SDS011;4953;48.952;9.442;2022-09-03T18:31:28;4.33;;;2.07;;
9827;SDS011;4953;48.952;9.442;2022-09-03T18:34:13;4.10;;;1.70;;
9827;SDS011;4953;48.952;9.442;2022-09-03T18:36:58;3.30;;;2.33;;
9827;SDS011;4953;48.952;9.442;2022-09-03T18:39:43;3.10;;;2.10;;
9827;SDS011;4953;48.952;9.442;2022-09-03T18:42:30;2.33;;;2.00;;
9827;SDS011;4953;48.952;9.442;2022-09-03T18:45:26;3.70;;;2.70;;
9827;SDS011;4953;48.952;9.442;2022-09-03T18:48:20;3.07;;;1.80;;
9827;SDS011;4953;48.952;9.442;2022-09-03T18:51:16;1.90;;;1.70;;
9827;SDS011;4953;48.952;9.442;2022-09-03T18:54:13;3.47;;;2.20;;
9827;SDS011;4953;48.952;9.442;2022-09-03T18:57:07;2.43;;;1.67;;
9827;SDS011;4953;48.952;9.442;2022-09-03T19:00:02;3.10;;;1.97;;
9827;SDS011;4953;48.952;9.442;2022-09-03T19:02:53;2.00;;;1.80;;
9827;SDS011;4953;48.952;9.442;2022-09-03T19:05:53;2.37;;;1.90;;
9827;SDS011;4953;48.952;9.442;2022-09-03T19:08:46;2.70;;;2.13;;
9827;SDS011;4953;48.952;9.442;2022-09-03T19:11:35;2.90;;;2.27;;
9827;SDS011;4953;48.952;9.442;2022-09-03T19:14:31;3.00;;;2.50;;
9827;SDS011;4953;48.952;9.442;2022-09-03T19:17:25;3.30;;;2.67;;
9827;SDS011;4953;48.952;9.442;2022-09-03T19:20:21;2.90;;;2.20;;
9827;SDS011;4953;48.952;9.442;2022-09-03T19:23:10;4.20;;;2.73;;
9827;SDS011;4953;48.952;9.442;2022-09-03T19:25:55;3.17;;;2.50;;
9827;SDS011;4953;48.952;9.442;2022-09-03T19:28:46;2.77;;;2.47;;
9827;SDS011;4953;48.952;9.442;2022-09-03T19:31:42;3.30;;;2.50;;
9827;SDS011;4953;48.952;9.442;2022-09-03T19:34:35;3.70;;;2.40;;
9827;SDS011;4953;48.952;9.442;2022-09-03T19:37:31;3.27;;;2.30;;
9827;SDS011;4953;48.952;9.442;2022-09-03T19:40:28;4.07;;;2.20;;
9827;SDS011;4953;48.952;9.442;2022-09-03T19:43:24;3.20;;;2.57;;
9827;SDS011;4953;48.952;9.442;2022-09-03T19:46:21;3.80;;;2.20;;
9827;SDS011;4953;48.952;9.442;2022-09-03T19:49:16;3.17;;;2.53;;
9827;SDS011;4953;48.952;9.442;2022-09-03T19:52:11;5.10;;;3.00;;
9827;SDS011;4953;48.952;9.442;2022-09-03T19:55:00;2.97;;;2.50;;
9827;SDS011;4953;48.952;9.442;2022-09-03T19:57:46;4.53;;;3.10;;
9827;SDS011;4953;48.952;9.442;2022-09-03T20:00:37;3.20;;;2.70;;
9827;SDS011;4953;48.952;9.442;2022-09-03T20:03:21;3.10;;;2.33;;
9827;SDS011;4953;48.952;9.442;2022-09-03T20:06:07;3.07;;;2.70;;
9827;SDS011;4953;48.952;9.442;2022-09-03T20:08:53;2.47;;;2.27;;
9827;SDS011;4953;48.952;9.442;2022-09-03T20:11:42;4.30;;;2.87;;
9827;SDS011;4953;48.952;9.442;2022-09-03T20:14:10;4.23;;;2.80;;
9827;SDS011;4953;48.952;9.442;2022-09-03T20:16:44;4.07;;;2.90;;
9827;SDS011;4953;48.952;9.442;2022-09-03T20:19:21;4.63;;;3.23;;
9827;SDS011;4953;48.952;9.442;2022-09-03T20:21:57;4.10;;;3.27;;
9827;SDS011;4953;48.952;9.442;2022-09-03T20:24:35;4.30;;;3.30;;